sensor_id;sensor_type;location;lat;lon;timestamp;P1;durP1;ratioP1;P2;durP2;ratioP2
37997;SDS011;24079;51.824;4.682;2023-08-01T00:00:04;11.63;;;3.60;;
37997;SDS011;24079;51.824;4.682;2023-08-01T00:02:33;17.75;;;3.85;;
37997;SDS011;24079;51.824;4.682;2023-08-01T00:04:59;18.30;;;3.63;;
37997;SDS011;24079;51.824;4.682;2023-08-01T00:07:28;21.42;;;3.80;;
37997;SDS011;24079;51.824;4.682;2023-08-01T00:09:54;23.77;;;3.92;;
37997;SDS011;24079;51.824;4.682;2023-08-01T00:12:20;17.13;;;4.25;;
37997;SDS011;24079;51.824;4.682;2023-08-01T00:14:47;19.42;;;4.10;;
37997;SDS011;24079;51.824;4.682;2023-08-01T00:17:13;13.60;;;3.42;;
37997;SDS011;24079;51.824;4.682;2023-08-01T00:19:39;20.48;;;4.05;;
37997;SDS011;24079;51.824;4.682;2023-08-01T00:22:06;17.08;;;3.72;;
37997;SDS011;24079;51.824;4.682;2023-08-01T00:24:32;23.13;;;4.45;;
37997;SDS011;24079;51.824;4.682;2023-08-01T00:26:58;18.77;;;4.30;;
37997;SDS011;24079;51.824;4.682;2023-08-01T00:29:24;14.45;;;4.07;;
37997;SDS011;24079;51.824;4.682;2023-08-01T00:31:50;17.77;;;4.15;;
37997;SDS011;24079;51.824;4.682;2023-08-01T00:34:16;18.20;;;4.50;;
37997;SDS011;24079;51.824;4.682;2023-08-01T00:36:42;22.42;;;3.78;;
37997;SDS011;24079;51.824;4.682;2023-08-01T00:39:08;14.70;;;3.70;;
37997;SDS011;24079;51.824;4.682;2023-08-01T00:41:35;17.80;;;3.60;;
37997;SDS011;24079;51.824;4.682;2023-08-01T00:44:01;16.15;;;4.28;;
37997;SDS011;24079;51.824;4.682;2023-08-01T00:46:27;16.63;;;4.65;;
37997;SDS011;24079;51.824;4.682;2023-08-01T00:48:53;18.73;;;4.25;;
37997;SDS011;24079;51.824;4.682;2023-08-01T00:51:23;19.05;;;4.40;;
37997;SDS011;24079;51.824;4.682;2023-08-01T00:53:51;23.27;;;4.60;;
37997;SDS011;24079;51.824;4.682;2023-08-01T00:56:17;18.13;;;4.28;;
37997;SDS011;24079;51.824;4.682;2023-08-01T00:58:44;12.02;;;4.53;;
37997;SDS011;24079;51.824;4.682;2023-08-01T01:01:10;19.77;;;4.30;;
37997;SDS011;24079;51.824;4.682;2023-08-01T01:03:36;24.95;;;4.43;;
37997;SDS011;24079;51.824;4.682;2023-08-01T01:08:49;22.10;;;4.65;;
37997;SDS011;24079;51.824;4.682;2023-08-01T01:11:15;16.98;;;3.75;;
37997;SDS011;24079;51.824;4.682;2023-08-01T01:13:41;17.10;;;4.25;;
37997;SDS011;24079;51.824;4.682;2023-08-01T01:16:07;23.15;;;4.68;;
37997;SDS011;24079;51.824;4.682;2023-08-01T01:18:33;18.15;;;4.03;;
37997;SDS011;24079;51.824;4.682;2023-08-01T01:20:59;16.88;;;4.28;;
37997;SDS011;24079;51.824;4.682;2023-08-01T01:23:25;20.30;;;4.78;;
37997;SDS011;24079;51.824;4.682;2023-08-01T01:25:54;22.38;;;5.15;;
37997;SDS011;24079;51.824;4.682;2023-08-01T01:28:22;13.70;;;4.25;;
37997;SDS011;24079;51.824;4.682;2023-08-01T01:30:49;17.20;;;4.00;;
37997;SDS011;24079;51.824;4.682;2023-08-01T01:33:16;16.13;;;4.50;;
37997;SDS011;24079;51.824;4.682;2023-08-01T01:35:43;21.30;;;4.30;;
37997;SDS011;24079;51.824;4.682;2023-08-01T01:38:09;17.40;;;4.13;;
37997;SDS011;24079;51.824;4.682;2023-08-01T01:40:35;13.63;;;4.20;;
37997;SDS011;24079;51.824;4.682;2023-08-01T01:43:01;14.80;;;3.90;;
37997;SDS011;24079;51.824;4.682;2023-08-01T01:45:27;16.50;;;4.20;;
37997;SDS011;24079;51.824;4.682;2023-08-01T01:47:54;13.38;;;4.30;;
37997;SDS011;24079;51.824;4.682;2023-08-01T01:50:20;15.75;;;4.55;;
37997;SDS011;24079;51.824;4.682;2023-08-01T01:52:46;19.55;;;4.50;;
37997;SDS011;24079;51.824;4.682;2023-08-01T01:55:12;16.80;;;4.63;;
37997;SDS011;24079;51.824;4.682;2023-08-01T01:57:38;16.92;;;4.28;;
37997;SDS011;24079;51.824;4.682;2023-08-01T02:00:04;19.33;;;4.63;;
37997;SDS011;24079;51.824;4.682;2023-08-01T02:02:31;19.90;;;4.30;;
37997;SDS011;24079;51.824;4.682;2023-08-01T02:04:57;12.88;;;4.47;;
37997;SDS011;24079;51.824;4.682;2023-08-01T02:07:23;16.05;;;4.60;;
37997;SDS011;24079;51.824;4.682;2023-08-01T02:09:49;13.45;;;4.32;;
37997;SDS011;24079;51.824;4.682;2023-08-01T02:12:16;14.43;;;4.22;;
37997;SDS011;24079;51.824;4.682;2023-08-01T02:14:42;12.73;;;4.15;;
37997;SDS011;24079;51.824;4.682;2023-08-01T02:17:08;15.98;;;4.70;;
37997;SDS011;24079;51.824;4.682;2023-08-01T02:19:34;16.08;;;4.38;;
37997;SDS011;24079;51.824;4.682;2023-08-01T02:22:00;19.58;;;4.57;;
37997;SDS011;24079;51.824;4.682;2023-08-01T02:24:27;16.48;;;5.18;;
37997;SDS011;24079;51.824;4.682;2023-08-01T02:26:53;14.77;;;5.15;;
37997;SDS011;24079;51.824;4.682;2023-08-01T02:29:19;14.65;;;4.57;;
37997;SDS011;24079;51.824;4.682;2023-08-01T02:31:45;18.50;;;4.88;;
37997;SDS011;24079;51.824;4.682;2023-08-01T02:34:11;17.20;;;4.65;;
37997;SDS011;24079;51.824;4.682;2023-08-01T02:36:37;23.80;;;4.78;;
37997;SDS011;24079;51.824;4.682;2023-08-01T02:39:03;15.48;;;4.80;;
37997;SDS011;24079;51.824;4.682;2023-08-01T02:41:29;14.23;;;4.72;;
37997;SDS011;24079;51.824;4.682;2023-08-01T02:43:55;13.50;;;4.22;;
37997;SDS011;24079;51.824;4.682;2023-08-01T02:46:21;14.02;;;4.65;;
37997;SDS011;24079;51.824;4.682;2023-08-01T02:48:48;17.27;;;4.55;;
37997;SDS011;24079;51.824;4.682;2023-08-01T02:51:14;18.20;;;4.90;;
37997;SDS011;24079;51.824;4.682;2023-08-01T02:53:40;17.13;;;4.88;;
37997;SDS011;24079;51.824;4.682;2023-08-01T02:56:07;16.25;;;4.55;;
37997;SDS011;24079;51.824;4.682;2023-08-01T02:58:35;16.50;;;4.80;;
37997;SDS011;24079;51.824;4.682;2023-08-01T03:01:01;17.50;;;5.07;;
37997;SDS011;24079;51.824;4.682;2023-08-01T03:03:32;13.35;;;4.85;;
37997;SDS011;24079;51.824;4.682;2023-08-01T03:05:57;18.67;;;5.30;;
37997;SDS011;24079;51.824;4.682;2023-08-01T03:08:25;22.05;;;5.00;;
37997;SDS011;24079;51.824;4.682;2023-08-01T03:10:53;14.32;;;4.90;;
37997;SDS011;24079;51.824;4.682;2023-08-01T03:13:19;16.20;;;5.28;;
37997;SDS011;24079;51.824;4.682;2023-08-01T03:15:46;22.15;;;5.22;;
37997;SDS011;24079;51.824;4.682;2023-08-01T03:18:12;20.30;;;5.32;;
37997;SDS011;24079;51.824;4.682;2023-08-01T03:20:38;19.50;;;5.50;;
37997;SDS011;24079;51.824;4.682;2023-08-01T03:23:05;19.63;;;6.20;;
37997;SDS011;24079;51.824;4.682;2023-08-01T03:25:31;14.70;;;5.25;;
37997;SDS011;24079;51.824;4.682;2023-08-01T03:27:57;15.95;;;5.07;;
37997;SDS011;24079;51.824;4.682;2023-08-01T03:30:23;20.35;;;5.60;;
37997;SDS011;24079;51.824;4.682;2023-08-01T03:32:50;19.20;;;4.63;;
37997;SDS011;24079;51.824;4.682;2023-08-01T03:35:17;22.00;;;6.45;;
37997;SDS011;24079;51.824;4.682;2023-08-01T03:37:43;22.90;;;6.18;;
37997;SDS011;24079;51.824;4.682;2023-08-01T03:40:08;21.75;;;5.45;;
37997;SDS011;24079;51.824;4.682;2023-08-01T03:42:34;26.55;;;6.15;;
37997;SDS011;24079;51.824;4.682;2023-08-01T03:45:00;18.40;;;5.95;;
37997;SDS011;24079;51.824;4.682;2023-08-01T03:47:26;17.33;;;5.97;;
37997;SDS011;24079;51.824;4.682;2023-08-01T03:49:52;22.70;;;6.80;;
37997;SDS011;24079;51.824;4.682;2023-08-01T03:52:17;22.30;;;6.32;;
37997;SDS011;24079;51.824;4.682;2023-08-01T03:54:44;18.58;;;6.00;;
37997;SDS011;24079;51.824;4.682;2023-08-01T03:57:10;23.70;;;6.90;;
37997;SDS011;24079;51.824;4.682;2023-08-01T03:59:36;19.30;;;6.22;;
37997;SDS011;24079;51.824;4.682;2023-08-01T04:02:02;20.38;;;6.10;;
37997;SDS011;24079;51.824;4.682;2023-08-01T04:04:28;22.05;;;6.45;;
37997;SDS011;24079;51.824;4.682;2023-08-01T04:06:55;24.67;;;6.20;;
37997;SDS011;24079;51.824;4.682;2023-08-01T04:09:21;24.52;;;7.28;;
37997;SDS011;24079;51.824;4.682;2023-08-01T04:11:47;24.50;;;6.85;;
37997;SDS011;24079;51.824;4.682;2023-08-01T04:14:13;23.67;;;6.90;;
37997;SDS011;24079;51.824;4.682;2023-08-01T04:16:39;20.30;;;6.25;;
37997;SDS011;24079;51.824;4.682;2023-08-01T04:19:05;20.13;;;6.53;;
37997;SDS011;24079;51.824;4.682;2023-08-01T04:21:31;26.73;;;6.53;;
37997;SDS011;24079;51.824;4.682;2023-08-01T04:23:57;20.17;;;6.15;;
37997;SDS011;24079;51.824;4.682;2023-08-01T04:26:23;24.45;;;6.85;;
37997;SDS011;24079;51.824;4.682;2023-08-01T04:28:49;20.13;;;6.43;;
37997;SDS011;24079;51.824;4.682;2023-08-01T04:31:15;22.98;;;6.32;;
37997;SDS011;24079;51.824;4.682;2023-08-01T04:33:42;24.60;;;6.72;;
37997;SDS011;24079;51.824;4.682;2023-08-01T04:36:08;24.50;;;6.50;;
37997;SDS011;24079;51.824;4.682;2023-08-01T04:38:34;27.38;;;6.45;;
37997;SDS011;24079;51.824;4.682;2023-08-01T04:41:01;24.00;;;6.97;;
37997;SDS011;24079;51.824;4.682;2023-08-01T04:43:28;26.25;;;6.70;;
37997;SDS011;24079;51.824;4.682;2023-08-01T04:45:54;21.13;;;6.20;;
37997;SDS011;24079;51.824;4.682;2023-08-01T04:48:20;22.88;;;6.43;;
37997;SDS011;24079;51.824;4.682;2023-08-01T04:50:46;21.55;;;5.65;;
37997;SDS011;24079;51.824;4.682;2023-08-01T04:53:12;21.42;;;6.50;;
37997;SDS011;24079;51.824;4.682;2023-08-01T04:55:39;24.08;;;6.03;;
37997;SDS011;24079;51.824;4.682;2023-08-01T04:58:05;24.75;;;6.30;;
37997;SDS011;24079;51.824;4.682;2023-08-01T05:00:31;21.63;;;5.88;;
37997;SDS011;24079;51.824;4.682;2023-08-01T05:02:58;23.17;;;5.97;;
37997;SDS011;24079;51.824;4.682;2023-08-01T05:05:24;25.25;;;6.40;;
37997;SDS011;24079;51.824;4.682;2023-08-01T05:07:50;21.88;;;5.80;;
37997;SDS011;24079;51.824;4.682;2023-08-01T05:10:16;18.25;;;5.75;;
37997;SDS011;24079;51.824;4.682;2023-08-01T05:12:42;26.50;;;6.28;;
37997;SDS011;24079;51.824;4.682;2023-08-01T05:15:08;22.20;;;6.35;;
37997;SDS011;24079;51.824;4.682;2023-08-01T05:17:34;19.15;;;5.10;;
37997;SDS011;24079;51.824;4.682;2023-08-01T05:20:00;23.30;;;5.85;;
37997;SDS011;24079;51.824;4.682;2023-08-01T05:22:29;23.42;;;5.90;;
37997;SDS011;24079;51.824;4.682;2023-08-01T05:24:55;24.65;;;5.82;;
37997;SDS011;24079;51.824;4.682;2023-08-01T05:27:21;21.73;;;5.70;;
37997;SDS011;24079;51.824;4.682;2023-08-01T05:29:47;19.80;;;5.03;;
37997;SDS011;24079;51.824;4.682;2023-08-01T05:32:12;21.83;;;5.85;;
37997;SDS011;24079;51.824;4.682;2023-08-01T05:34:38;18.48;;;5.22;;
37997;SDS011;24079;51.824;4.682;2023-08-01T05:37:03;24.98;;;5.50;;
37997;SDS011;24079;51.824;4.682;2023-08-01T05:39:29;17.63;;;5.18;;
37997;SDS011;24079;51.824;4.682;2023-08-01T05:41:55;18.50;;;4.85;;
37997;SDS011;24079;51.824;4.682;2023-08-01T05:44:21;21.75;;;5.20;;
37997;SDS011;24079;51.824;4.682;2023-08-01T05:46:47;17.15;;;4.50;;
37997;SDS011;24079;51.824;4.682;2023-08-01T05:49:13;14.95;;;4.68;;
37997;SDS011;24079;51.824;4.682;2023-08-01T05:51:39;20.20;;;4.93;;
37997;SDS011;24079;51.824;4.682;2023-08-01T05:54:05;21.40;;;4.60;;
37997;SDS011;24079;51.824;4.682;2023-08-01T05:56:31;17.73;;;4.35;;
37997;SDS011;24079;51.824;4.682;2023-08-01T05:58:57;15.95;;;4.68;;
37997;SDS011;24079;51.824;4.682;2023-08-01T06:01:23;14.48;;;3.63;;
37997;SDS011;24079;51.824;4.682;2023-08-01T06:03:50;17.42;;;4.18;;
37997;SDS011;24079;51.824;4.682;2023-08-01T06:06:16;17.30;;;3.83;;
37997;SDS011;24079;51.824;4.682;2023-08-01T06:08:42;17.20;;;3.90;;
37997;SDS011;24079;51.824;4.682;2023-08-01T06:11:08;18.48;;;5.03;;
37997;SDS011;24079;51.824;4.682;2023-08-01T06:13:34;15.80;;;4.22;;
37997;SDS011;24079;51.824;4.682;2023-08-01T06:16:01;17.63;;;4.00;;
37997;SDS011;24079;51.824;4.682;2023-08-01T06:18:27;14.05;;;4.38;;
37997;SDS011;24079;51.824;4.682;2023-08-01T06:20:54;18.15;;;5.25;;
37997;SDS011;24079;51.824;4.682;2023-08-01T06:23:20;15.60;;;4.65;;
37997;SDS011;24079;51.824;4.682;2023-08-01T06:25:46;16.58;;;4.40;;
37997;SDS011;24079;51.824;4.682;2023-08-01T06:28:12;13.07;;;3.97;;
37997;SDS011;24079;51.824;4.682;2023-08-01T06:30:39;16.27;;;4.10;;
37997;SDS011;24079;51.824;4.682;2023-08-01T06:33:05;14.15;;;3.80;;
37997;SDS011;24079;51.824;4.682;2023-08-01T06:35:31;18.23;;;3.88;;
37997;SDS011;24079;51.824;4.682;2023-08-01T06:37:57;16.50;;;4.50;;
37997;SDS011;24079;51.824;4.682;2023-08-01T06:40:24;13.48;;;4.30;;
37997;SDS011;24079;51.824;4.682;2023-08-01T06:42:50;15.63;;;4.60;;
37997;SDS011;24079;51.824;4.682;2023-08-01T06:45:16;17.17;;;4.18;;
37997;SDS011;24079;51.824;4.682;2023-08-01T06:47:43;16.70;;;4.47;;
37997;SDS011;24079;51.824;4.682;2023-08-01T06:50:09;15.80;;;3.97;;
37997;SDS011;24079;51.824;4.682;2023-08-01T06:52:35;14.00;;;3.70;;
37997;SDS011;24079;51.824;4.682;2023-08-01T06:55:01;13.13;;;3.63;;
37997;SDS011;24079;51.824;4.682;2023-08-01T06:57:27;15.45;;;3.92;;
37997;SDS011;24079;51.824;4.682;2023-08-01T06:59:53;11.90;;;4.00;;
37997;SDS011;24079;51.824;4.682;2023-08-01T07:02:19;13.50;;;3.95;;
37997;SDS011;24079;51.824;4.682;2023-08-01T07:04:46;13.70;;;4.00;;
37997;SDS011;24079;51.824;4.682;2023-08-01T07:07:12;12.63;;;3.80;;
37997;SDS011;24079;51.824;4.682;2023-08-01T07:09:38;13.45;;;4.07;;
37997;SDS011;24079;51.824;4.682;2023-08-01T07:12:04;12.82;;;3.67;;
37997;SDS011;24079;51.824;4.682;2023-08-01T07:14:31;20.75;;;4.10;;
37997;SDS011;24079;51.824;4.682;2023-08-01T07:16:57;15.88;;;4.45;;
37997;SDS011;24079;51.824;4.682;2023-08-01T07:19:23;13.73;;;3.78;;
37997;SDS011;24079;51.824;4.682;2023-08-01T07:21:49;19.25;;;4.20;;
37997;SDS011;24079;51.824;4.682;2023-08-01T07:24:15;14.02;;;3.80;;
37997;SDS011;24079;51.824;4.682;2023-08-01T07:26:41;13.70;;;4.22;;
37997;SDS011;24079;51.824;4.682;2023-08-01T07:29:07;14.80;;;3.70;;
37997;SDS011;24079;51.824;4.682;2023-08-01T07:31:36;14.93;;;3.78;;
37997;SDS011;24079;51.824;4.682;2023-08-01T07:34:02;16.33;;;3.80;;
37997;SDS011;24079;51.824;4.682;2023-08-01T07:36:28;13.75;;;3.60;;
37997;SDS011;24079;51.824;4.682;2023-08-01T07:38:54;18.25;;;3.47;;
37997;SDS011;24079;51.824;4.682;2023-08-01T07:41:22;16.13;;;3.42;;
37997;SDS011;24079;51.824;4.682;2023-08-01T07:43:48;12.35;;;2.83;;
37997;SDS011;24079;51.824;4.682;2023-08-01T07:46:14;8.52;;;3.22;;
37997;SDS011;24079;51.824;4.682;2023-08-01T07:48:40;11.52;;;3.33;;
37997;SDS011;24079;51.824;4.682;2023-08-01T07:51:06;16.17;;;3.45;;
37997;SDS011;24079;51.824;4.682;2023-08-01T07:53:33;11.95;;;3.53;;
37997;SDS011;24079;51.824;4.682;2023-08-01T07:56:00;10.65;;;2.88;;
37997;SDS011;24079;51.824;4.682;2023-08-01T07:58:28;16.42;;;3.67;;
37997;SDS011;24079;51.824;4.682;2023-08-01T08:00:55;16.60;;;4.00;;
37997;SDS011;24079;51.824;4.682;2023-08-01T08:03:21;12.30;;;3.42;;
37997;SDS011;24079;51.824;4.682;2023-08-01T08:05:49;11.73;;;3.17;;
37997;SDS011;24079;51.824;4.682;2023-08-01T08:08:15;13.30;;;3.17;;
37997;SDS011;24079;51.824;4.682;2023-08-01T08:10:41;13.32;;;3.38;;
37997;SDS011;24079;51.824;4.682;2023-08-01T08:13:07;13.18;;;3.40;;
37997;SDS011;24079;51.824;4.682;2023-08-01T08:15:33;12.23;;;3.13;;
37997;SDS011;24079;51.824;4.682;2023-08-01T08:18:00;11.98;;;3.63;;
37997;SDS011;24079;51.824;4.682;2023-08-01T08:20:34;11.30;;;3.25;;
37997;SDS011;24079;51.824;4.682;2023-08-01T08:23:07;11.65;;;3.38;;
37997;SDS011;24079;51.824;4.682;2023-08-01T08:25:33;12.52;;;3.15;;
37997;SDS011;24079;51.824;4.682;2023-08-01T08:28:00;13.35;;;3.13;;
37997;SDS011;24079;51.824;4.682;2023-08-01T08:30:26;12.93;;;3.25;;
37997;SDS011;24079;51.824;4.682;2023-08-01T08:32:52;12.23;;;2.85;;
37997;SDS011;24079;51.824;4.682;2023-08-01T08:35:18;11.82;;;3.38;;
37997;SDS011;24079;51.824;4.682;2023-08-01T08:37:44;11.25;;;2.92;;
37997;SDS011;24079;51.824;4.682;2023-08-01T08:40:12;11.68;;;3.10;;
37997;SDS011;24079;51.824;4.682;2023-08-01T08:42:39;13.35;;;3.42;;
37997;SDS011;24079;51.824;4.682;2023-08-01T08:45:06;10.68;;;3.25;;
37997;SDS011;24079;51.824;4.682;2023-08-01T08:47:36;15.85;;;3.53;;
37997;SDS011;24079;51.824;4.682;2023-08-01T08:50:07;15.75;;;3.70;;
37997;SDS011;24079;51.824;4.682;2023-08-01T08:52:34;17.05;;;3.22;;
37997;SDS011;24079;51.824;4.682;2023-08-01T08:55:01;11.65;;;2.70;;
37997;SDS011;24079;51.824;4.682;2023-08-01T08:57:28;19.42;;;3.97;;
37997;SDS011;24079;51.824;4.682;2023-08-01T08:59:56;12.45;;;3.60;;
37997;SDS011;24079;51.824;4.682;2023-08-01T09:02:23;11.20;;;3.30;;
37997;SDS011;24079;51.824;4.682;2023-08-01T09:04:50;14.40;;;3.88;;
37997;SDS011;24079;51.824;4.682;2023-08-01T09:07:16;17.23;;;4.07;;
37997;SDS011;24079;51.824;4.682;2023-08-01T09:09:49;12.05;;;3.55;;
37997;SDS011;24079;51.824;4.682;2023-08-01T09:12:15;14.55;;;3.35;;
37997;SDS011;24079;51.824;4.682;2023-08-01T09:14:41;16.23;;;3.00;;
37997;SDS011;24079;51.824;4.682;2023-08-01T09:17:09;12.95;;;3.13;;
37997;SDS011;24079;51.824;4.682;2023-08-01T09:19:35;11.00;;;3.15;;
37997;SDS011;24079;51.824;4.682;2023-08-01T09:22:02;18.08;;;3.70;;
37997;SDS011;24079;51.824;4.682;2023-08-01T09:24:35;14.65;;;4.05;;
37997;SDS011;24079;51.824;4.682;2023-08-01T09:27:03;13.60;;;3.28;;
37997;SDS011;24079;51.824;4.682;2023-08-01T09:29:30;21.38;;;3.72;;
37997;SDS011;24079;51.824;4.682;2023-08-01T09:31:58;16.08;;;3.67;;
37997;SDS011;24079;51.824;4.682;2023-08-01T09:34:25;11.50;;;3.38;;
37997;SDS011;24079;51.824;4.682;2023-08-01T09:36:58;14.10;;;3.40;;
37997;SDS011;24079;51.824;4.682;2023-08-01T09:39:26;11.88;;;3.17;;
37997;SDS011;24079;51.824;4.682;2023-08-01T09:41:56;14.82;;;3.25;;
37997;SDS011;24079;51.824;4.682;2023-08-01T09:44:22;14.50;;;3.08;;
37997;SDS011;24079;51.824;4.682;2023-08-01T09:49:22;10.60;;;2.75;;
37997;SDS011;24079;51.824;4.682;2023-08-01T09:51:49;10.20;;;2.42;;
37997;SDS011;24079;51.824;4.682;2023-08-01T09:54:17;11.95;;;3.25;;
37997;SDS011;24079;51.824;4.682;2023-08-01T09:56:44;12.85;;;3.13;;
37997;SDS011;24079;51.824;4.682;2023-08-01T09:59:11;9.63;;;2.63;;
37997;SDS011;24079;51.824;4.682;2023-08-01T10:01:38;9.65;;;2.72;;
37997;SDS011;24079;51.824;4.682;2023-08-01T10:04:06;10.85;;;2.67;;
37997;SDS011;24079;51.824;4.682;2023-08-01T10:06:34;10.88;;;2.85;;
37997;SDS011;24079;51.824;4.682;2023-08-01T10:09:03;10.93;;;2.60;;
37997;SDS011;24079;51.824;4.682;2023-08-01T10:11:30;11.50;;;2.60;;
37997;SDS011;24079;51.824;4.682;2023-08-01T10:13:59;17.90;;;2.97;;
37997;SDS011;24079;51.824;4.682;2023-08-01T10:16:28;10.82;;;2.85;;
37997;SDS011;24079;51.824;4.682;2023-08-01T10:18:54;13.13;;;2.83;;
37997;SDS011;24079;51.824;4.682;2023-08-01T10:21:22;10.55;;;2.45;;
37997;SDS011;24079;51.824;4.682;2023-08-01T10:23:48;10.27;;;2.15;;
37997;SDS011;24079;51.824;4.682;2023-08-01T10:26:15;14.15;;;2.65;;
37997;SDS011;24079;51.824;4.682;2023-08-01T10:28:49;11.63;;;2.78;;
37997;SDS011;24079;51.824;4.682;2023-08-01T10:31:17;16.73;;;2.90;;
37997;SDS011;24079;51.824;4.682;2023-08-01T10:33:45;13.52;;;2.70;;
37997;SDS011;24079;51.824;4.682;2023-08-01T10:41:28;11.10;;;3.00;;
37997;SDS011;24079;51.824;4.682;2023-08-01T10:49:36;14.02;;;3.17;;
37997;SDS011;24079;51.824;4.682;2023-08-01T10:52:02;11.77;;;2.88;;
37997;SDS011;24079;51.824;4.682;2023-08-01T10:54:30;11.85;;;2.58;;
37997;SDS011;24079;51.824;4.682;2023-08-01T10:56:57;11.13;;;2.80;;
37997;SDS011;24079;51.824;4.682;2023-08-01T10:59:24;15.90;;;2.88;;
37997;SDS011;24079;51.824;4.682;2023-08-01T11:01:57;16.30;;;3.00;;
37997;SDS011;24079;51.824;4.682;2023-08-01T11:04:24;10.23;;;2.85;;
37997;SDS011;24079;51.824;4.682;2023-08-01T11:06:54;9.10;;;2.38;;
37997;SDS011;24079;51.824;4.682;2023-08-01T11:09:26;12.35;;;2.90;;
37997;SDS011;24079;51.824;4.682;2023-08-01T11:11:55;13.35;;;2.97;;
37997;SDS011;24079;51.824;4.682;2023-08-01T11:14:26;10.60;;;2.33;;
37997;SDS011;24079;51.824;4.682;2023-08-01T11:16:54;14.85;;;3.00;;
37997;SDS011;24079;51.824;4.682;2023-08-01T11:19:28;14.35;;;3.22;;
37997;SDS011;24079;51.824;4.682;2023-08-01T11:21:55;13.85;;;3.17;;
37997;SDS011;24079;51.824;4.682;2023-08-01T11:24:23;10.75;;;2.60;;
37997;SDS011;24079;51.824;4.682;2023-08-01T11:26:50;13.90;;;3.25;;
37997;SDS011;24079;51.824;4.682;2023-08-01T11:29:19;11.68;;;2.78;;
37997;SDS011;24079;51.824;4.682;2023-08-01T11:31:58;19.30;;;2.83;;
37997;SDS011;24079;51.824;4.682;2023-08-01T11:34:25;10.75;;;2.70;;
37997;SDS011;24079;51.824;4.682;2023-08-01T11:36:51;13.48;;;2.78;;
37997;SDS011;24079;51.824;4.682;2023-08-01T11:39:18;10.02;;;2.78;;
37997;SDS011;24079;51.824;4.682;2023-08-01T11:41:44;10.55;;;2.55;;
37997;SDS011;24079;51.824;4.682;2023-08-01T11:44:10;11.68;;;2.67;;
37997;SDS011;24079;51.824;4.682;2023-08-01T11:46:37;10.50;;;2.55;;
37997;SDS011;24079;51.824;4.682;2023-08-01T11:49:04;7.47;;;2.33;;
37997;SDS011;24079;51.824;4.682;2023-08-01T11:51:38;12.63;;;2.88;;
37997;SDS011;24079;51.824;4.682;2023-08-01T11:54:05;10.93;;;2.40;;
37997;SDS011;24079;51.824;4.682;2023-08-01T11:56:32;7.55;;;2.15;;
37997;SDS011;24079;51.824;4.682;2023-08-01T11:58:58;10.73;;;2.50;;
37997;SDS011;24079;51.824;4.682;2023-08-01T12:01:24;11.00;;;2.80;;
37997;SDS011;24079;51.824;4.682;2023-08-01T12:03:53;11.55;;;2.20;;
37997;SDS011;24079;51.824;4.682;2023-08-01T12:06:21;11.27;;;2.45;;
37997;SDS011;24079;51.824;4.682;2023-08-01T12:08:49;9.55;;;2.13;;
37997;SDS011;24079;51.824;4.682;2023-08-01T12:11:23;10.93;;;2.63;;
37997;SDS011;24079;51.824;4.682;2023-08-01T12:14:04;9.50;;;2.35;;
37997;SDS011;24079;51.824;4.682;2023-08-01T12:16:38;12.13;;;2.50;;
37997;SDS011;24079;51.824;4.682;2023-08-01T12:19:05;11.63;;;2.53;;
37997;SDS011;24079;51.824;4.682;2023-08-01T12:21:31;10.75;;;3.00;;
37997;SDS011;24079;51.824;4.682;2023-08-01T12:24:01;12.23;;;2.63;;
37997;SDS011;24079;51.824;4.682;2023-08-01T12:26:28;10.40;;;2.42;;
37997;SDS011;24079;51.824;4.682;2023-08-01T12:28:54;9.32;;;2.47;;
37997;SDS011;24079;51.824;4.682;2023-08-01T12:31:21;8.75;;;2.13;;
37997;SDS011;24079;51.824;4.682;2023-08-01T12:33:48;9.73;;;2.50;;
37997;SDS011;24079;51.824;4.682;2023-08-01T12:36:15;12.80;;;2.20;;
37997;SDS011;24079;51.824;4.682;2023-08-01T12:38:41;9.60;;;2.10;;
37997;SDS011;24079;51.824;4.682;2023-08-01T12:41:08;10.35;;;2.35;;
37997;SDS011;24079;51.824;4.682;2023-08-01T12:43:34;5.72;;;1.80;;
37997;SDS011;24079;51.824;4.682;2023-08-01T12:46:00;11.85;;;2.35;;
37997;SDS011;24079;51.824;4.682;2023-08-01T12:48:26;9.30;;;2.45;;
37997;SDS011;24079;51.824;4.682;2023-08-01T12:50:53;11.82;;;2.20;;
37997;SDS011;24079;51.824;4.682;2023-08-01T12:53:20;9.30;;;2.33;;
37997;SDS011;24079;51.824;4.682;2023-08-01T12:55:47;8.32;;;2.28;;
37997;SDS011;24079;51.824;4.682;2023-08-01T12:58:14;9.55;;;2.53;;
37997;SDS011;24079;51.824;4.682;2023-08-01T13:00:41;9.38;;;2.33;;
37997;SDS011;24079;51.824;4.682;2023-08-01T13:03:08;6.45;;;1.73;;
37997;SDS011;24079;51.824;4.682;2023-08-01T13:05:36;9.50;;;2.22;;
37997;SDS011;24079;51.824;4.682;2023-08-01T13:08:04;6.80;;;2.20;;
37997;SDS011;24079;51.824;4.682;2023-08-01T13:10:30;9.65;;;2.28;;
37997;SDS011;24079;51.824;4.682;2023-08-01T13:12:57;8.52;;;2.13;;
37997;SDS011;24079;51.824;4.682;2023-08-01T13:15:24;12.27;;;2.50;;
37997;SDS011;24079;51.824;4.682;2023-08-01T13:17:51;10.45;;;2.58;;
37997;SDS011;24079;51.824;4.682;2023-08-01T13:20:17;11.35;;;2.38;;
37997;SDS011;24079;51.824;4.682;2023-08-01T13:22:45;7.30;;;2.00;;
37997;SDS011;24079;51.824;4.682;2023-08-01T13:25:15;10.85;;;2.03;;
37997;SDS011;24079;51.824;4.682;2023-08-01T13:27:41;8.48;;;1.75;;
37997;SDS011;24079;51.824;4.682;2023-08-01T13:30:08;7.25;;;2.05;;
37997;SDS011;24079;51.824;4.682;2023-08-01T13:32:34;9.10;;;2.22;;
37997;SDS011;24079;51.824;4.682;2023-08-01T13:35:01;9.82;;;2.30;;
37997;SDS011;24079;51.824;4.682;2023-08-01T13:37:27;8.45;;;2.00;;
37997;SDS011;24079;51.824;4.682;2023-08-01T13:39:57;7.20;;;1.50;;
37997;SDS011;24079;51.824;4.682;2023-08-01T13:42:23;11.05;;;2.38;;
37997;SDS011;24079;51.824;4.682;2023-08-01T13:44:50;9.80;;;1.95;;
37997;SDS011;24079;51.824;4.682;2023-08-01T13:47:16;8.13;;;1.90;;
37997;SDS011;24079;51.824;4.682;2023-08-01T13:49:42;11.30;;;2.53;;
37997;SDS011;24079;51.824;4.682;2023-08-01T13:52:08;11.40;;;2.45;;
37997;SDS011;24079;51.824;4.682;2023-08-01T13:54:34;11.82;;;2.35;;
37997;SDS011;24079;51.824;4.682;2023-08-01T13:57:00;11.45;;;2.25;;
37997;SDS011;24079;51.824;4.682;2023-08-01T13:59:26;9.65;;;1.73;;
37997;SDS011;24079;51.824;4.682;2023-08-01T14:01:52;7.90;;;2.13;;
37997;SDS011;24079;51.824;4.682;2023-08-01T14:04:18;6.85;;;2.00;;
37997;SDS011;24079;51.824;4.682;2023-08-01T14:06:45;9.07;;;1.98;;
37997;SDS011;24079;51.824;4.682;2023-08-01T14:09:12;9.52;;;2.17;;
37997;SDS011;24079;51.824;4.682;2023-08-01T14:11:38;11.75;;;2.00;;
37997;SDS011;24079;51.824;4.682;2023-08-01T14:14:05;11.73;;;2.00;;
37997;SDS011;24079;51.824;4.682;2023-08-01T14:16:31;7.80;;;1.90;;
37997;SDS011;24079;51.824;4.682;2023-08-01T14:18:58;8.05;;;2.25;;
37997;SDS011;24079;51.824;4.682;2023-08-01T14:21:24;8.10;;;2.20;;
37997;SDS011;24079;51.824;4.682;2023-08-01T14:23:49;8.93;;;1.88;;
37997;SDS011;24079;51.824;4.682;2023-08-01T14:26:15;11.98;;;2.25;;
37997;SDS011;24079;51.824;4.682;2023-08-01T14:28:41;8.93;;;1.92;;
37997;SDS011;24079;51.824;4.682;2023-08-01T14:31:06;7.90;;;2.20;;
37997;SDS011;24079;51.824;4.682;2023-08-01T14:33:33;11.18;;;2.47;;
37997;SDS011;24079;51.824;4.682;2023-08-01T14:35:59;12.90;;;2.08;;
37997;SDS011;24079;51.824;4.682;2023-08-01T14:38:26;8.35;;;2.10;;
37997;SDS011;24079;51.824;4.682;2023-08-01T14:40:52;11.27;;;2.30;;
37997;SDS011;24079;51.824;4.682;2023-08-01T14:43:18;10.48;;;2.20;;
37997;SDS011;24079;51.824;4.682;2023-08-01T14:45:45;10.90;;;2.40;;
37997;SDS011;24079;51.824;4.682;2023-08-01T14:48:11;8.07;;;1.70;;